Time;durP1;ratioP1;P1;durP2;ratioP2;P2;SDS_P1;SDS_P2;PMS_P1;PMS_P2;Temp;Humidity;BMP_temperature;BMP_pressure;BME280_temperature;BME280_humidity;BME280_pressure;Samples;Min_cycle;Max_cycle;Signal;HPM_P1;HPM_P2
2021/12/16 00:09:52;;;;;;;60.75;24.52;;;;;;;2.43;97.83;101773.81;4422075;32;20505;-70
2021/12/16 00:34:31;;;;;;;57.33;22.77;;;;;;;1.68;100.00;101771.31;4422088;32;20086;-70
2021/12/16 00:37:00;;;;;;;59.03;25.35;;;;;;;1.64;100.00;101769.41;4421786;32;20125;-70
2021/12/16 00:39:34;;;;;;;52.22;24.42;;;;;;;1.54;100.00;101778.47;4421842;32;20085;-70
2021/12/16 00:42:07;;;;;;;63.70;27.15;;;;;;;1.43;100.00;101777.97;4421350;32;20088;-70
2021/12/16 00:50:23;;;;;;;49.88;23.60;;;;;;;1.35;100.00;101778.44;4342865;32;20475;-70
2021/12/16 00:58:05;;;;;;;49.65;22.65;;;;;;;1.11;100.00;101778.12;4421922;32;20105;-70
2021/12/16 01:00:32;;;;;;;58.10;25.88;;;;;;;1.06;100.00;101769.22;4421640;32;20519;-70
2021/12/16 01:36:07;;;;;;;47.78;21.95;;;;;;;1.21;99.48;101769.97;4421352;32;20093;-70
2021/12/16 01:39:55;;;;;;;54.78;23.40;;;;;;;1.22;99.60;101763.06;4421166;32;20101;-70
2021/12/16 01:46:55;;;;;;;50.42;23.27;;;;;;;1.12;100.00;101757.44;4406860;32;20396;-70
2021/12/16 01:49:36;;;;;;;56.85;22.58;;;;;;;1.18;100.00;101762.94;4421105;32;20165;-70
2021/12/16 01:57:17;;;;;;;52.62;22.80;;;;;;;1.21;99.95;101750.91;4421410;32;20121;-70
2021/12/16 01:59:56;;;;;;;48.10;22.45;;;;;;;1.21;99.90;101748.31;4421165;32;20090;-70
2021/12/16 02:03:07;;;;;;;53.80;24.15;;;;;;;1.19;100.00;101750.84;4421246;32;20600;-70
2021/12/16 02:05:39;;;;;;;54.70;22.95;;;;;;;1.11;100.00;101749.59;4411273;32;20169;-70
2021/12/16 02:08:35;;;;;;;51.45;23.10;;;;;;;1.04;100.00;101745.78;4420929;32;20448;-70
2021/12/16 02:28:29;;;;;;;53.00;23.80;;;;;;;1.04;100.00;101737.12;4420518;32;20085;-70
2021/12/16 02:34:02;;;;;;;49.28;23.30;;;;;;;1.17;100.00;101732.59;4420700;32;20093;-70
2021/12/16 02:36:31;;;;;;;51.47;21.80;;;;;;;1.01;100.00;101726.59;4420829;32;20102;-70
2021/12/16 02:39:04;;;;;;;54.45;23.35;;;;;;;0.97;100.00;101728.16;4420577;32;20141;-70
2021/12/16 02:41:32;;;;;;;51.05;22.70;;;;;;;1.03;100.00;101724.97;4420818;32;20487;-70
2021/12/16 02:49:24;;;;;;;50.03;20.67;;;;;;;1.09;99.14;101733.03;4420631;32;20188;-70
2021/12/16 02:51:52;;;;;;;52.53;23.65;;;;;;;1.11;100.00;101728.81;4420433;32;20153;-71
2021/12/16 02:54:23;;;;;;;51.25;23.12;;;;;;;1.11;99.91;101719.31;4420432;32;20097;-70
2021/12/16 02:56:51;;;;;;;51.63;22.90;;;;;;;0.94;100.00;101712.44;4420459;32;20105;-70
2021/12/16 02:59:24;;;;;;;46.83;20.70;;;;;;;0.98;100.00;101719.53;4420443;32;20527;-71
2021/12/16 03:01:54;;;;;;;58.30;22.52;;;;;;;1.12;100.00;101715.91;4420389;32;20089;-70
2021/12/16 03:04:25;;;;;;;54.03;22.80;;;;;;;1.26;100.00;101716.56;4420207;32;20181;-70
2021/12/16 03:06:56;;;;;;;47.85;22.15;;;;;;;1.21;100.00;101710.28;4420384;32;20536;-70
2021/12/16 03:10:09;;;;;;;52.60;22.80;;;;;;;1.02;100.00;101713.66;4420663;32;20081;-70
2021/12/16 03:15:26;;;;;;;58.80;23.62;;;;;;;1.08;100.00;101701.00;4420472;32;20097;-70
2021/12/16 03:20:38;;;;;;;53.28;22.92;;;;;;;1.14;100.00;101701.28;4420202;32;20152;-70
2021/12/16 03:23:24;;;;;;;57.28;23.67;;;;;;;1.15;100.00;101702.19;4420254;32;20370;-71
2021/12/16 03:38:56;;;;;;;52.13;22.55;;;;;;;1.56;100.00;101708.44;4420061;32;20128;-70
2021/12/16 03:41:24;;;;;;;50.80;22.85;;;;;;;1.69;100.00;101708.13;4420005;32;20146;-70
2021/12/16 03:43:53;;;;;;;51.17;21.98;;;;;;;1.60;100.00;101707.75;4420188;32;20169;-70
2021/12/16 03:46:27;;;;;;;49.85;21.62;;;;;;;1.59;100.00;101711.13;4419824;32;20158;-70
2021/12/16 03:49:10;;;;;;;50.15;22.23;;;;;;;1.72;100.00;101697.87;4419964;32;20464;-70
2021/12/16 03:51:55;;;;;;;45.40;20.40;;;;;;;1.63;100.00;101705.28;4419882;32;20476;-70
2021/12/16 03:54:28;;;;;;;47.67;20.95;;;;;;;1.69;100.00;101710.75;4419886;32;20120;-70
2021/12/16 03:57:00;;;;;;;49.75;21.08;;;;;;;1.58;100.00;101705.06;4419657;32;20085;-70
2021/12/16 03:59:31;;;;;;;48.03;21.08;;;;;;;1.59;100.00;101700.75;4419948;32;20450;-71
2021/12/16 04:02:03;;;;;;;45.53;21.10;;;;;;;1.63;100.00;101700.09;4419813;32;20111;-70
2021/12/16 04:04:32;;;;;;;48.38;22.13;;;;;;;1.67;100.00;101704.59;4419764;32;20089;-70
2021/12/16 04:07:00;;;;;;;56.13;24.90;;;;;;;1.68;100.00;101706.38;4419867;32;20093;-70
2021/12/16 04:09:32;;;;;;;58.45;25.27;;;;;;;1.70;100.00;101709.03;4419826;32;20226;-70
2021/12/16 04:12:14;;;;;;;56.15;25.75;;;;;;;1.65;100.00;101708.81;4419759;32;20432;-70
2021/12/16 04:14:41;;;;;;;55.42;26.60;;;;;;;1.71;100.00;101708.22;4419505;32;20516;-70
2021/12/16 04:17:13;;;;;;;55.42;24.67;;;;;;;1.70;100.00;101701.22;4421520;32;20515;-70
2021/12/16 04:20:01;;;;;;;61.30;27.37;;;;;;;1.73;100.00;101699.66;4422191;32;20101;-70
2021/12/16 04:22:37;;;;;;;60.90;26.12;;;;;;;1.65;100.00;101701.91;4422062;32;20093;-70
2021/12/16 04:25:13;;;;;;;56.20;24.42;;;;;;;1.67;100.00;101696.81;4421995;32;20136;-70
2021/12/16 04:27:43;;;;;;;53.55;23.62;;;;;;;1.63;100.00;101707.87;4421999;32;20169;-70
2021/12/16 04:30:13;;;;;;;52.90;23.90;;;;;;;1.63;100.00;101700.97;4421821;32;20136;-70
2021/12/16 04:32:41;;;;;;;48.17;21.77;;;;;;;1.68;100.00;101698.56;4421980;32;20090;-70
2021/12/16 04:35:09;;;;;;;56.40;23.05;;;;;;;1.61;100.00;101701.72;4422098;32;20204;-70
2021/12/16 04:37:37;;;;;;;54.05;23.73;;;;;;;1.59;100.00;101704.25;4421948;32;20478;-70
2021/12/16 04:40:09;;;;;;;57.00;23.50;;;;;;;1.82;99.60;101694.00;4421835;32;20088;-70
2021/12/16 04:42:37;;;;;;;52.53;25.45;;;;;;;1.83;100.00;101713.97;4421778;32;20097;-70
2021/12/16 04:45:07;;;;;;;56.92;24.37;;;;;;;1.57;100.00;101708.47;4421744;32;20105;-70
2021/12/16 04:47:37;;;;;;;49.47;22.55;;;;;;;1.44;100.00;101712.22;4421249;32;20752;-70
2021/12/16 04:50:10;;;;;;;45.25;21.20;;;;;;;1.46;100.00;101712.31;4422330;32;20196;-70
2021/12/16 04:52:39;;;;;;;46.50;23.05;;;;;;;1.47;100.00;101714.06;4422488;32;20086;-70
2021/12/16 04:55:10;;;;;;;48.50;20.62;;;;;;;1.53;99.56;101703.09;4422242;32;20464;-71
2021/12/16 04:57:37;;;;;;;52.60;23.00;;;;;;;1.84;97.90;101700.16;4421994;32;20094;-70
2021/12/16 05:00:08;;;;;;;52.00;22.20;;;;;;;1.60;99.02;101702.53;4422082;32;20161;-70
2021/12/16 05:02:37;;;;;;;53.42;23.27;;;;;;;1.28;100.00;101696.75;4422380;32;20141;-70
2021/12/16 05:05:05;;;;;;;52.62;24.27;;;;;;;1.19;100.00;101702.38;4422287;32;20097;-70
2021/12/16 05:07:33;;;;;;;62.60;25.65;;;;;;;1.14;100.00;101703.88;4423055;32;20405;-70
2021/12/16 05:10:06;;;;;;;51.70;24.37;;;;;;;1.15;100.00;101690.09;4427710;31;20168;-71
2021/12/16 05:12:38;;;;;;;65.87;28.27;;;;;;;1.16;100.00;101696.16;4424456;32;20086;-71
2021/12/16 05:15:13;;;;;;;61.47;27.13;;;;;;;1.01;100.00;101693.72;4421405;32;20085;-71
2021/12/16 05:17:44;;;;;;;61.75;26.85;;;;;;;0.88;100.00;101689.69;4421576;32;20224;-71
2021/12/16 05:20:18;;;;;;;55.92;27.35;;;;;;;0.90;100.00;101698.41;4421322;32;20180;-71
2021/12/16 05:25:48;;;;;;;56.80;25.40;;;;;;;1.11;99.75;101700.25;4421499;32;20621;-71
2021/12/16 05:28:18;;;;;;;64.30;27.15;;;;;;;1.03;100.00;101709.41;4421363;32;20393;-71
2021/12/16 05:30:46;;;;;;;64.75;28.10;;;;;;;0.99;100.00;101707.44;4421438;32;20120;-70
2021/12/16 05:33:15;;;;;;;71.60;31.65;;;;;;;0.99;100.00;101708.37;4421091;32;20093;-70
2021/12/16 05:35:43;;;;;;;74.75;32.13;;;;;;;0.98;100.00;101711.75;4421213;32;20120;-70
2021/12/16 05:38:13;;;;;;;72.97;32.70;;;;;;;0.97;100.00;101714.28;4421414;32;20125;-70
2021/12/16 05:40:41;;;;;;;111.93;43.17;;;;;;;0.93;99.96;101713.25;4421335;32;20163;-70
2021/12/16 05:43:12;;;;;;;158.10;57.55;;;;;;;0.89;100.00;101711.31;4421174;32;20145;-70
2021/12/16 05:45:40;;;;;;;116.93;51.50;;;;;;;0.93;99.64;101718.44;4421623;32;20157;-70
2021/12/16 05:48:10;;;;;;;116.10;49.35;;;;;;;0.93;99.37;101721.91;4421435;32;20132;-70
2021/12/16 05:50:44;;;;;;;113.62;47.65;;;;;;;0.95;99.49;101729.75;4421588;32;20097;-70
2021/12/16 05:53:12;;;;;;;106.68;45.65;;;;;;;1.00;99.03;101727.41;4421252;32;20149;-70
2021/12/16 05:55:40;;;;;;;92.30;43.97;;;;;;;1.03;98.97;101736.25;4421076;32;20146;-70
2021/12/16 05:58:09;;;;;;;97.75;39.97;;;;;;;1.07;98.26;101738.16;4420881;32;20169;-70
2021/12/16 06:00:41;;;;;;;89.15;37.78;;;;;;;1.13;98.49;101732.34;4430097;32;20117;-70
2021/12/16 06:03:12;;;;;;;88.18;37.95;;;;;;;1.11;98.46;101739.19;4429031;32;20082;-70
2021/12/16 06:05:40;;;;;;;79.05;35.42;;;;;;;1.10;98.71;101734.84;4424676;32;20093;-70
2021/12/16 06:08:09;;;;;;;74.43;33.25;;;;;;;1.05;99.17;101733.69;4420709;32;20536;-70
2021/12/16 06:13:26;;;;;;;72.93;33.30;;;;;;;1.07;99.39;101732.97;4420551;32;20501;-70
2021/12/16 06:27:10;;;;;;;78.28;32.40;;;;;;;1.14;98.08;101729.84;4435839;32;20109;-71
2021/12/16 06:29:39;;;;;;;81.50;34.55;;;;;;;0.96;99.63;101734.16;4435826;32;20453;-71
2021/12/16 06:32:09;;;;;;;72.90;33.60;;;;;;;1.06;99.71;101732.88;4435900;32;20109;-71
2021/12/16 06:34:37;;;;;;;78.45;34.65;;;;;;;1.10;99.56;101729.66;4435720;32;20144;-71
2021/12/16 06:37:05;;;;;;;83.12;37.25;;;;;;;1.08;99.95;101733.84;4436150;31;20121;-72
2021/12/16 06:39:32;;;;;;;89.43;38.55;;;;;;;1.14;99.41;101737.63;4435498;32;20546;-71
2021/12/16 06:42:05;;;;;;;86.10;38.70;;;;;;;1.18;99.13;101738.69;4436073;32;20129;-71
2021/12/16 06:44:52;;;;;;;86.55;40.15;;;;;;;1.10;99.28;101737.44;4421731;32;20167;-72
2021/12/16 06:47:26;;;;;;;83.87;37.30;;;;;;;1.16;99.17;101740.28;4435883;32;20081;-71
2021/12/16 06:49:55;;;;;;;84.70;38.08;;;;;;;1.31;98.00;101746.25;4435641;32;20526;-71
2021/12/16 06:52:30;;;;;;;89.75;40.30;;;;;;;1.54;96.91;101741.22;4435646;31;20160;-71
2021/12/16 06:55:25;;;;;;;95.15;40.85;;;;;;;1.41;97.12;101751.06;4435650;32;20109;-71
2021/12/16 06:57:55;;;;;;;96.32;41.80;;;;;;;1.37;96.80;101749.09;4435637;32;20553;-71
2021/12/16 07:00:35;;;;;;;105.87;42.90;;;;;;;1.29;97.86;101754.75;4435651;32;20089;-72
2021/12/16 07:03:06;;;;;;;108.97;43.60;;;;;;;1.29;98.02;101758.25;4435328;32;20113;-71
2021/12/16 07:05:40;;;;;;;92.72;40.05;;;;;;;1.40;97.54;101761.34;4435658;32;20077;-72
2021/12/16 07:08:12;;;;;;;94.45;41.13;;;;;;;1.54;96.55;101760.28;4430148;32;20097;-73
2021/12/16 07:10:49;;;;;;;100.55;41.97;;;;;;;1.66;95.55;101758.28;4419951;32;20090;-72
2021/12/16 07:13:30;;;;;;;105.05;43.38;;;;;;;1.81;94.65;101755.50;4420193;32;20251;-72
2021/12/16 07:15:58;;;;;;;103.12;41.42;;;;;;;1.59;95.60;101750.09;4420101;32;20086;-72
2021/12/16 07:18:25;;;;;;;108.82;44.65;;;;;;;1.63;94.97;101752.06;4419743;32;20119;-71
2021/12/16 07:20:53;;;;;;;103.97;43.28;;;;;;;1.47;96.71;101749.53;4419686;32;20428;-71
2021/12/16 07:23:21;;;;;;;96.05;43.58;;;;;;;1.28;97.98;101750.41;4420580;32;20128;-72
2021/12/16 07:25:48;;;;;;;109.05;44.80;;;;;;;1.36;98.03;101756.84;4419905;32;20508;-72
2021/12/16 07:28:16;;;;;;;100.97;44.22;;;;;;;1.42;97.72;101762.31;4419975;32;20142;-72
2021/12/16 07:30:45;;;;;;;91.20;43.10;;;;;;;1.68;96.43;101758.34;4419985;32;20125;-72
2021/12/16 07:33:13;;;;;;;99.45;43.75;;;;;;;1.56;97.41;101762.97;4423990;32;20484;-73
2021/12/16 07:35:42;;;;;;;95.82;43.17;;;;;;;1.60;97.08;101755.37;4427731;32;20510;-70
2021/12/16 07:38:09;;;;;;;90.05;38.22;;;;;;;1.69;98.42;101752.31;4425891;32;20093;-70
2021/12/16 07:40:39;;;;;;;83.45;39.47;;;;;;;1.84;100.00;101753.03;4425597;32;20164;-70
2021/12/16 07:45:45;;;;;;;64.15;25.20;;;;;;;2.35;100.00;101747.47;4425163;32;20520;-71
2021/12/16 07:48:16;;;;;;;61.03;25.02;;;;;;;2.84;100.00;101753.03;4422568;32;20101;-70
2021/12/16 07:50:49;;;;;;;74.07;28.73;;;;;;;2.90;100.00;101749.81;4433613;32;20106;-72
2021/12/16 07:53:16;;;;;;;48.45;21.60;;;;;;;2.95;100.00;101747.38;4436193;32;20483;-71
2021/12/16 07:55:43;;;;;;;62.97;23.80;;;;;;;3.08;100.00;101740.12;4435991;31;20097;-71
2021/12/16 07:58:11;;;;;;;56.95;23.50;;;;;;;3.43;100.00;101750.16;4436983;32;20523;-72
2021/12/16 08:00:39;;;;;;;60.00;21.70;;;;;;;3.44;100.00;101744.12;4437145;31;20158;-72
2021/12/16 08:03:10;;;;;;;57.60;22.58;;;;;;;3.66;100.00;101746.72;4436943;31;20136;-71
2021/12/16 08:05:47;;;;;;;55.72;24.17;;;;;;;3.74;100.00;101745.28;4437412;32;20085;-72
2021/12/16 08:08:15;;;;;;;48.55;20.52;;;;;;;3.67;100.00;101745.87;4437513;32;20910;-73
2021/12/16 08:10:43;;;;;;;50.72;21.80;;;;;;;3.81;100.00;101747.28;4437288;31;20101;-71
2021/12/16 08:13:10;;;;;;;48.70;21.20;;;;;;;3.75;100.00;101744.47;4437347;32;20117;-72
2021/12/16 08:15:37;;;;;;;49.40;20.50;;;;;;;3.89;100.00;101746.69;4437437;32;20103;-73
2021/12/16 08:18:05;;;;;;;56.83;22.75;;;;;;;3.80;100.00;101742.91;4437063;31;20403;-72
2021/12/16 08:20:32;;;;;;;50.83;20.15;;;;;;;3.79;100.00;101745.47;4437200;32;20168;-73
2021/12/16 08:23:01;;;;;;;48.17;22.20;;;;;;;3.78;100.00;101741.06;4437134;32;20184;-71
2021/12/16 08:25:30;;;;;;;53.38;21.62;;;;;;;3.94;100.00;101738.22;4437066;32;20141;-72
2021/12/16 08:28:03;;;;;;;44.25;17.62;;;;;;;3.97;100.00;101740.06;4429360;32;20088;-72
2021/12/16 08:30:34;;;;;;;46.15;20.05;;;;;;;3.98;100.00;101744.44;4429914;32;20112;-74
2021/12/16 08:33:06;;;;;;;45.90;19.58;;;;;;;3.94;100.00;101753.84;4408977;32;20263;-72
2021/12/16 08:35:37;;;;;;;48.35;19.48;;;;;;;3.91;100.00;101747.63;4429653;32;20077;-71
2021/12/16 08:38:04;;;;;;;55.60;18.48;;;;;;;3.96;100.00;101735.69;4437164;32;20077;-71
2021/12/16 08:40:31;;;;;;;41.63;17.52;;;;;;;3.95;100.00;101732.16;4436864;32;20098;-71
2021/12/16 08:42:59;;;;;;;53.25;20.48;;;;;;;3.98;100.00;101737.47;4437444;32;20452;-71
2021/12/16 08:45:29;;;;;;;53.17;20.65;;;;;;;3.91;100.00;101735.47;4423059;32;20101;-71
2021/12/16 08:47:57;;;;;;;54.92;23.08;;;;;;;3.81;100.00;101735.97;4436767;32;20088;-70
2021/12/16 08:50:34;;;;;;;64.20;21.62;;;;;;;3.95;100.00;101736.47;4437008;32;20089;-71
2021/12/16 08:53:01;;;;;;;48.78;20.67;;;;;;;4.04;100.00;101735.09;4436998;32;20481;-71
2021/12/16 08:55:32;;;;;;;54.72;22.27;;;;;;;4.08;100.00;101729.16;4436771;32;20090;-71
2021/12/16 08:58:00;;;;;;;49.53;20.40;;;;;;;4.17;100.00;101739.06;4436989;32;20076;-71
2021/12/16 09:00:32;;;;;;;52.90;20.65;;;;;;;4.22;100.00;101745.31;4434032;32;20458;-72
2021/12/16 09:03:01;;;;;;;52.70;21.00;;;;;;;4.24;100.00;101738.44;4436413;32;20483;-72
2021/12/16 09:05:29;;;;;;;41.25;18.65;;;;;;;4.30;100.00;101746.47;4437421;31;20477;-71
2021/12/16 09:07:56;;;;;;;51.50;21.73;;;;;;;4.28;100.00;101731.63;4437551;32;20137;-71
2021/12/16 09:10:28;;;;;;;48.90;20.55;;;;;;;4.28;100.00;101729.88;4437438;32;20105;-71
2021/12/16 09:13:04;;;;;;;48.13;18.98;;;;;;;4.39;100.00;101732.00;4437811;32;20144;-72
2021/12/16 09:15:36;;;;;;;55.85;20.25;;;;;;;4.56;99.71;101736.06;4437730;32;20078;-71
2021/12/16 09:18:05;;;;;;;48.30;20.98;;;;;;;4.74;99.25;101730.59;4437470;32;20531;-70
2021/12/16 09:20:34;;;;;;;48.67;20.40;;;;;;;5.04;97.91;101725.47;4437752;32;20144;-72
2021/12/16 09:23:02;;;;;;;45.92;19.77;;;;;;;5.33;96.57;101734.19;4437550;31;20096;-72
2021/12/16 09:25:30;;;;;;;43.15;19.40;;;;;;;5.44;95.76;101730.22;4436620;32;20116;-71
2021/12/16 09:27:57;;;;;;;43.85;19.17;;;;;;;5.58;94.61;101732.34;4422930;32;20092;-72
2021/12/16 09:30:27;;;;;;;43.75;18.50;;;;;;;5.65;94.09;101736.91;4421915;32;20094;-72
2021/12/16 09:32:58;;;;;;;49.33;19.52;;;;;;;5.77;93.99;101718.97;4421395;32;20161;-72
2021/12/16 09:35:33;;;;;;;38.67;16.17;;;;;;;5.96;92.92;101712.56;4422657;32;20160;-72
2021/12/16 09:38:02;;;;;;;30.80;13.35;;;;;;;6.17;91.39;101713.16;4436195;32;20141;-71
2021/12/16 09:40:34;;;;;;;45.35;19.87;;;;;;;6.11;90.72;101713.03;4421960;31;20138;-72
2021/12/16 09:43:04;;;;;;;42.47;18.02;;;;;;;6.09;91.08;101708.59;4422004;32;20094;-72
2021/12/16 09:45:53;;;;;;;39.33;17.17;;;;;;;6.33;90.32;101708.37;4421980;32;20879;-72
2021/12/16 09:48:21;;;;;;;41.30;17.62;;;;;;;6.23;89.98;101707.22;4421788;31;20088;-73
2021/12/16 09:50:49;;;;;;;41.88;17.85;;;;;;;6.19;90.24;101708.88;4421291;32;20124;-73
2021/12/16 09:53:17;;;;;;;38.03;18.00;;;;;;;6.42;89.05;101706.84;4425450;32;20128;-73
2021/12/16 09:55:50;;;;;;;43.75;19.35;;;;;;;6.62;88.48;101710.00;4436106;31;20086;-73
2021/12/16 09:58:17;;;;;;;34.45;15.95;;;;;;;6.57;88.08;101713.34;4429216;32;20132;-73
2021/12/16 10:00:45;;;;;;;36.53;17.65;;;;;;;6.69;87.49;101711.94;4420876;32;20132;-72
2021/12/16 10:03:12;;;;;;;42.40;17.23;;;;;;;7.02;86.21;101710.97;4424304;32;20108;-72
2021/12/16 10:05:44;;;;;;;41.05;19.05;;;;;;;7.33;84.32;101709.06;4426691;32;20392;-72
2021/12/16 10:08:12;;;;;;;38.83;17.48;;;;;;;7.40;83.31;101713.59;4426671;32;20088;-73
2021/12/16 10:10:39;;;;;;;47.55;19.67;;;;;;;7.50;83.28;101709.47;4429428;32;20188;-71
2021/12/16 10:13:07;;;;;;;38.58;17.40;;;;;;;7.80;81.94;101701.34;4432096;32;20109;-72
2021/12/16 10:18:20;;;;;;;34.80;16.67;;;;;;;7.73;81.73;101699.44;4420259;32;20787;-72
2021/12/16 10:20:59;;;;;;;37.63;17.52;;;;;;;7.66;81.51;101698.41;4432219;32;20169;-71
2021/12/16 10:23:33;;;;;;;30.20;13.70;;;;;;;8.34;79.08;101690.16;4424908;32;20169;-71
2021/12/16 10:26:15;;;;;;;33.58;15.50;;;;;;;8.72;76.45;101687.31;4428877;32;20088;-72
2021/12/16 10:28:50;;;;;;;33.63;17.10;;;;;;;9.14;74.33;101683.59;4427660;32;20502;-71
2021/12/16 10:31:28;;;;;;;43.30;17.52;;;;;;;9.75;72.98;101676.53;4425677;31;20102;-72
2021/12/16 10:34:05;;;;;;;32.72;14.52;;;;;;;10.11;71.46;101673.44;4424714;32;20089;-71
2021/12/16 10:36:38;;;;;;;33.92;16.42;;;;;;;11.03;65.96;101679.56;4429009;32;20162;-71
2021/12/16 10:39:16;;;;;;;32.60;16.42;;;;;;;10.60;67.27;101675.69;4429889;32;20089;-71
2021/12/16 10:41:50;;;;;;;32.95;17.77;;;;;;;10.92;66.98;101671.56;4421905;32;20086;-71
2021/12/16 10:44:20;;;;;;;29.85;15.65;;;;;;;11.43;64.64;101674.53;4427353;32;20101;-72
2021/12/16 10:46:50;;;;;;;32.72;15.93;;;;;;;11.40;64.15;101671.88;4435082;32;20127;-72
2021/12/16 10:49:23;;;;;;;31.08;16.00;;;;;;;10.89;64.86;101671.56;4422275;31;20093;-71
2021/12/16 10:51:54;;;;;;;28.25;15.73;;;;;;;10.59;66.34;101669.53;4430644;32;20170;-71
2021/12/16 10:54:25;;;;;;;30.95;15.95;;;;;;;10.73;66.15;101675.81;4419919;32;21047;-72
2021/12/16 10:57:09;;;;;;;31.25;15.60;;;;;;;10.91;65.47;101671.53;4421327;31;20089;-71
2021/12/16 10:59:41;;;;;;;30.25;16.73;;;;;;;10.80;65.29;101675.84;4419834;32;20085;-71
2021/12/16 11:02:21;;;;;;;29.90;16.17;;;;;;;9.81;69.72;101680.13;4420515;32;20105;-71
2021/12/16 11:05:27;;;;;;;28.10;15.55;;;;;;;9.30;70.99;101682.97;4421469;32;20108;-72
2021/12/16 11:07:58;;;;;;;30.95;16.35;;;;;;;9.12;73.09;101685.31;4372110;32;20078;-72
2021/12/16 11:10:37;;;;;;;32.95;16.95;;;;;;;9.03;73.17;101679.06;4418885;32;20093;-72
2021/12/16 11:13:11;;;;;;;30.25;16.15;;;;;;;8.41;76.41;101683.28;4426395;32;20180;-72
2021/12/16 11:15:41;;;;;;;25.95;14.25;;;;;;;8.47;76.33;101673.75;4426449;32;20177;-71
2021/12/16 11:18:14;;;;;;;34.13;17.30;;;;;;;8.52;76.32;101679.12;4426556;32;20892;-73
2021/12/16 11:20:53;;;;;;;33.38;16.12;;;;;;;8.56;76.12;101668.69;4428845;32;20149;-73
2021/12/16 11:23:28;;;;;;;31.27;15.45;;;;;;;8.16;78.45;101664.41;4433652;32;20117;-72
2021/12/16 11:25:55;;;;;;;31.95;16.25;;;;;;;8.42;77.03;101671.94;4438905;32;20097;-71
2021/12/16 11:28:31;;;;;;;34.22;17.50;;;;;;;8.49;78.24;101665.94;4440154;32;20184;-72
2021/12/16 11:31:03;;;;;;;31.77;15.27;;;;;;;8.37;77.46;101661.28;4440984;32;20455;-72
2021/12/16 11:33:47;;;;;;;38.22;17.35;;;;;;;8.28;77.83;101656.78;4441223;32;20723;-71
2021/12/16 11:36:21;;;;;;;35.00;16.42;;;;;;;8.18;79.32;101653.97;4441220;32;20109;-72
2021/12/16 11:39:01;;;;;;;35.42;16.90;;;;;;;8.43;77.51;101650.06;4437584;32;20144;-70
2021/12/16 11:41:41;;;;;;;35.50;15.70;;;;;;;8.61;76.96;101647.72;4429024;32;20097;-70
2021/12/16 11:44:28;;;;;;;25.62;13.95;;;;;;;8.69;76.56;101650.47;4425598;32;20085;-72
2021/12/16 11:47:05;;;;;;;24.23;14.13;;;;;;;8.54;76.47;101648.50;4425839;32;20097;-69
2021/12/16 11:49:37;;;;;;;23.80;13.23;;;;;;;8.43;77.06;101645.69;4425422;32;20157;-70
2021/12/16 11:52:12;;;;;;;25.25;13.80;;;;;;;8.18;77.55;101636.47;4432752;32;20124;-71
2021/12/16 11:54:56;;;;;;;33.50;15.63;;;;;;;7.83;79.45;101636.69;4424277;32;20188;-71
2021/12/16 11:57:26;;;;;;;34.05;15.85;;;;;;;7.56;80.93;101633.50;4423590;32;20127;-71
2021/12/16 12:00:05;;;;;;;35.75;16.83;;;;;;;7.66;80.99;101635.47;4429066;32;20157;-71
2021/12/16 12:02:42;;;;;;;28.58;15.45;;;;;;;7.78;80.73;101640.09;4439889;32;20160;-70
2021/12/16 12:05:24;;;;;;;35.88;17.73;;;;;;;7.72;81.00;101635.59;4440083;32;20085;-70
2021/12/16 12:08:03;;;;;;;38.50;17.37;;;;;;;7.66;81.06;101640.72;4435563;32;20097;-70
2021/12/16 12:10:59;;;;;;;34.03;16.92;;;;;;;7.78;80.82;101635.72;4427662;32;20123;-70
2021/12/16 12:13:38;;;;;;;42.50;18.52;;;;;;;7.98;80.35;101630.84;4423842;32;20153;-70
2021/12/16 12:16:10;;;;;;;31.65;16.73;;;;;;;7.89;80.22;101628.06;4423631;32;20198;-70
2021/12/16 12:18:52;;;;;;;32.42;15.68;;;;;;;7.97;79.87;101628.19;4423942;32;20101;-70
2021/12/16 12:21:25;;;;;;;32.70;15.43;;;;;;;7.99;79.87;101640.50;4427722;32;20104;-70
2021/12/16 12:24:14;;;;;;;45.50;19.12;;;;;;;7.86;80.23;101639.38;4439080;32;20148;-70
2021/12/16 12:26:57;;;;;;;35.10;16.42;;;;;;;7.72;80.98;101624.22;4433902;32;20120;-68
2021/12/16 12:29:41;;;;;;;31.15;14.87;;;;;;;7.79;81.05;101626.97;4426339;32;20139;-70
2021/12/16 12:32:15;;;;;;;32.17;16.40;;;;;;;7.81;80.76;101625.28;4425156;32;20131;-71
2021/12/16 12:34:47;;;;;;;41.13;18.92;;;;;;;7.83;80.88;101625.31;4427369;32;20748;-71
2021/12/16 12:37:20;;;;;;;34.97;17.05;;;;;;;7.86;80.82;101628.00;4434960;32;20093;-70
2021/12/16 12:39:54;;;;;;;32.92;16.98;;;;;;;7.86;81.00;101634.13;4437972;32;20093;-70
2021/12/16 12:42:22;;;;;;;28.90;15.38;;;;;;;7.85;80.56;101632.34;4437203;32;20121;-71
2021/12/16 12:44:49;;;;;;;30.20;15.02;;;;;;;7.39;83.08;101625.31;4436662;32;20488;-71
2021/12/16 12:47:22;;;;;;;32.10;16.20;;;;;;;7.53;82.59;101638.72;4436618;32;20093;-71
2021/12/16 12:49:49;;;;;;;28.92;15.85;;;;;;;7.61;82.01;101626.63;4437790;32;20144;-71
2021/12/16 12:52:20;;;;;;;25.25;12.48;;;;;;;7.41;82.65;101628.81;4433383;32;20093;-71
2021/12/16 12:55:15;;;;;;;32.60;13.70;;;;;;;7.34;83.01;101626.94;4433623;32;20160;-71
2021/12/16 12:57:44;;;;;;;27.83;14.45;;;;;;;7.23;83.65;101629.31;4437194;32;20475;-71
2021/12/16 13:00:43;;;;;;;28.20;14.87;;;;;;;7.25;83.71;101617.16;4437571;32;20097;-71
2021/12/16 13:03:17;;;;;;;30.55;15.05;;;;;;;7.01;84.81;101624.47;4428279;31;20605;-72
2021/12/16 13:05:53;;;;;;;31.37;14.50;;;;;;;7.15;84.48;101618.69;4431751;32;20082;-72
2021/12/16 13:08:28;;;;;;;27.50;14.25;;;;;;;7.28;83.83;101626.78;4426053;32;20086;-71
2021/12/16 13:11:21;;;;;;;23.08;13.27;;;;;;;7.24;83.86;101624.97;4420190;32;20106;-71
2021/12/16 13:14:07;;;;;;;26.65;14.18;;;;;;;7.24;83.84;101630.19;4409640;32;20152;-71
2021/12/16 13:28:37;;;;;;;30.00;12.73;;;;;;;6.75;86.13;101644.81;4427560;32;20749;-70
2021/12/16 13:31:51;;;;;;;28.83;14.00;;;;;;;6.73;86.35;101643.91;4433195;32;20096;-71
2021/12/16 13:34:32;;;;;;;26.62;14.07;;;;;;;6.62;86.86;101641.91;4430325;32;20097;-72
2021/12/16 13:37:49;;;;;;;27.00;14.75;;;;;;;6.60;87.22;101654.06;4422168;32;20105;-71
2021/12/16 13:40:22;;;;;;;29.65;13.70;;;;;;;6.62;87.17;101656.75;4422832;32;20093;-71
2021/12/16 13:43:03;;;;;;;26.75;13.57;;;;;;;6.58;87.40;101657.50;4421688;32;20098;-71
2021/12/16 13:45:45;;;;;;;27.70;13.82;;;;;;;6.61;87.17;101652.34;4421989;32;20140;-70
2021/12/16 14:02:49;;;;;;;27.27;13.32;;;;;;;6.52;91.07;101658.22;4421841;32;20142;-70
2021/12/16 14:07:57;;;;;;;24.52;12.82;;;;;;;6.43;88.53;101660.59;4422023;32;19993;-70
2021/12/16 14:10:50;;;;;;;22.65;12.32;;;;;;;6.25;89.74;101657.53;4421826;32;20129;-70
2021/12/16 14:16:42;;;;;;;26.02;13.10;;;;;;;6.51;88.65;101652.97;4421260;32;20473;-71
2021/12/16 14:42:16;;;;;;;23.27;12.85;;;;;;;5.98;91.78;101655.97;4436733;32;20088;-70
2021/12/16 14:50:45;;;;;;;23.80;13.77;;;;;;;5.93;92.13;101658.44;4402891;31;20149;-71
2021/12/16 14:53:19;;;;;;;20.80;11.52;;;;;;;5.87;92.61;101657.37;4433282;32;20546;-71
2021/12/16 14:55:51;;;;;;;21.98;12.48;;;;;;;5.91;92.58;101659.22;4420272;32;20134;-71
2021/12/16 14:58:21;;;;;;;22.73;12.30;;;;;;;5.90;92.57;101660.97;4427825;32;20086;-71
2021/12/16 15:01:07;;;;;;;18.92;11.38;;;;;;;5.94;92.34;101662.84;4419743;32;20082;-71
2021/12/16 15:03:40;;;;;;;25.48;13.35;;;;;;;5.97;92.30;101662.94;4420345;32;20134;-69
2021/12/16 15:06:22;;;;;;;26.00;13.68;;;;;;;5.88;92.72;101659.12;4421220;32;20077;-69
2021/12/16 15:09:08;;;;;;;24.37;12.35;;;;;;;5.86;93.35;101658.19;4436399;32;20145;-69
2021/12/16 15:44:49;;;;;;;18.33;10.27;;;;;;;5.63;94.36;101653.22;4418855;32;20183;-72
2021/12/16 15:47:16;;;;;;;27.90;13.07;;;;;;;5.64;94.51;101652.34;4419702;32;20105;-72
2021/12/16 15:49:44;;;;;;;12.18;6.85;;;;;;;5.64;94.62;101654.97;4424200;32;20486;-72